Time;durP1;ratioP1;P1;durP2;ratioP2;P2;SDS_P1;SDS_P2;PMS_P1;PMS_P2;Temp;Humidity;BMP_temperature;BMP_pressure;BME280_temperature;BME280_humidity;BME280_pressure;Samples;Min_cycle;Max_cycle;Signal;HPM_P1;HPM_P2
2023/05/20 00:01:20;;;;;;;5.70;3.23;;;13.10;99.90;;;;;;4183360;28;20211;-77
2023/05/20 00:03:22;;;;;;;4.53;3.00;;;13.10;99.90;;;;;;4188373;28;20214;-77
2023/05/20 00:05:24;;;;;;;5.93;3.20;;;13.10;99.90;;;;;;4187306;28;20256;-77
2023/05/20 00:07:26;;;;;;;6.57;2.90;;;13.10;99.90;;;;;;4184164;28;20206;-77
2023/05/20 00:09:29;;;;;;;5.67;2.97;;;13.10;99.90;;;;;;4187831;28;20214;-77
2023/05/20 00:11:31;;;;;;;6.60;3.00;;;13.10;99.90;;;;;;4171589;28;20302;-77
2023/05/20 00:13:34;;;;;;;5.57;3.17;;;13.10;99.90;;;;;;4188824;28;20700;-77
2023/05/20 00:15:36;;;;;;;4.73;3.47;;;13.10;99.90;;;;;;4185110;28;20221;-77
2023/05/20 00:17:38;;;;;;;4.87;3.03;;;13.10;99.90;;;;;;4187495;28;20202;-76
2023/05/20 00:19:40;;;;;;;4.27;2.90;;;13.10;99.90;;;;;;4189361;28;20659;-77
2023/05/20 00:21:42;;;;;;;5.80;3.60;;;13.10;99.90;;;;;;4189957;28;20248;-76
2023/05/20 00:23:44;;;;;;;4.63;3.27;;;13.00;99.90;;;;;;4193959;28;20218;-76
2023/05/20 00:25:47;;;;;;;6.33;3.40;;;13.00;99.90;;;;;;4191935;28;20885;-77
2023/05/20 00:27:49;;;;;;;8.83;3.07;;;13.00;99.90;;;;;;4193114;28;20249;-76
2023/05/20 00:29:51;;;;;;;5.30;3.30;;;13.00;99.90;;;;;;4194035;28;20296;-77
2023/05/20 00:31:53;;;;;;;5.27;3.47;;;13.00;99.90;;;;;;4190594;28;20203;-76
2023/05/20 00:33:55;;;;;;;5.67;3.37;;;13.00;99.90;;;;;;4193102;28;20281;-76
2023/05/20 00:35:57;;;;;;;4.60;3.07;;;13.00;99.90;;;;;;4191210;28;20244;-77
2023/05/20 00:37:59;;;;;;;4.80;3.20;;;13.00;99.90;;;;;;4190580;28;20302;-76
2023/05/20 00:40:01;;;;;;;5.83;3.60;;;12.90;99.90;;;;;;4188341;28;20297;-76
2023/05/20 00:42:05;;;;;;;4.90;3.30;;;13.00;99.90;;;;;;4186762;28;20226;-76
2023/05/20 00:44:07;;;;;;;5.30;3.30;;;12.90;99.90;;;;;;4189108;28;20210;-76
2023/05/20 00:46:09;;;;;;;4.63;3.10;;;12.90;99.90;;;;;;4188837;28;20212;-77
2023/05/20 00:48:11;;;;;;;5.87;3.40;;;12.90;99.90;;;;;;4189275;28;20320;-76
2023/05/20 00:50:13;;;;;;;6.90;3.73;;;12.90;99.90;;;;;;4186614;28;20293;-76
2023/05/20 00:52:16;;;;;;;6.10;3.50;;;12.90;99.90;;;;;;4190164;28;20986;-77
2023/05/20 00:54:18;;;;;;;4.17;3.10;;;12.90;99.90;;;;;;4180983;28;21156;-76
2023/05/20 00:56:21;;;;;;;4.17;3.20;;;13.00;99.90;;;;;;4186530;28;20210;-76
2023/05/20 00:58:25;;;;;;;6.10;3.40;;;12.90;99.90;;;;;;4185935;28;20237;-76
2023/05/20 01:00:26;;;;;;;6.60;3.47;;;12.90;99.90;;;;;;4185258;28;20228;-77
2023/05/20 01:02:29;;;;;;;5.23;3.23;;;13.00;99.90;;;;;;4183722;28;20220;-77
2023/05/20 01:04:32;;;;;;;6.17;3.53;;;13.00;99.90;;;;;;4187604;28;20202;-76
2023/05/20 01:06:33;;;;;;;4.90;3.13;;;12.90;99.90;;;;;;4185588;28;20297;-76
2023/05/20 01:08:35;;;;;;;4.93;3.37;;;13.00;99.90;;;;;;4188173;28;20323;-77
2023/05/20 01:10:42;;;;;;;4.60;3.40;;;13.00;99.90;;;;;;4183706;28;20334;-77
2023/05/20 01:12:48;;;;;;;4.77;3.20;;;13.00;99.90;;;;;;4185103;28;20226;-77
2023/05/20 01:14:57;;;;;;;6.80;4.10;;;13.00;99.90;;;;;;4183618;28;20470;-76
2023/05/20 01:17:08;;;;;;;6.47;3.67;;;12.90;99.90;;;;;;4185114;28;20220;-76
2023/05/20 01:19:22;;;;;;;7.87;3.77;;;12.90;99.90;;;;;;4182816;28;20238;-77
2023/05/20 01:21:24;;;;;;;5.60;3.53;;;12.90;99.90;;;;;;4185475;28;20238;-75
2023/05/20 01:23:33;;;;;;;4.90;3.20;;;13.00;99.90;;;;;;4185614;28;20287;-76
2023/05/20 01:25:35;;;;;;;5.40;3.50;;;12.90;99.90;;;;;;4184703;28;20209;-75
2023/05/20 01:27:37;;;;;;;5.90;3.80;;;13.00;99.90;;;;;;4182873;28;20634;-76
2023/05/20 01:29:40;;;;;;;6.10;3.43;;;13.00;99.90;;;;;;4183297;28;20210;-76
2023/05/20 01:31:42;;;;;;;4.90;3.60;;;13.00;99.90;;;;;;4184029;28;20234;-75
2023/05/20 01:33:45;;;;;;;6.80;3.80;;;13.00;99.90;;;;;;4186856;28;20736;-75
2023/05/20 01:35:47;;;;;;;5.30;3.70;;;13.00;99.90;;;;;;4186016;28;20633;-76
2023/05/20 01:37:52;;;;;;;6.40;3.93;;;13.00;99.90;;;;;;4184546;28;20320;-76
2023/05/20 01:39:56;;;;;;;6.23;3.57;;;13.00;99.90;;;;;;4182054;28;20242;-76
2023/05/20 01:41:59;;;;;;;5.70;3.70;;;13.00;99.90;;;;;;4181747;28;20214;-76
2023/05/20 01:44:01;;;;;;;5.57;3.93;;;13.00;99.90;;;;;;4182272;28;20575;-76
2023/05/20 01:46:06;;;;;;;5.30;3.60;;;13.00;99.90;;;;;;4181913;28;20828;-76
2023/05/20 01:48:10;;;;;;;5.40;3.63;;;13.00;99.90;;;;;;4185343;28;20234;-76
2023/05/20 01:50:12;;;;;;;5.40;3.37;;;13.00;99.90;;;;;;4182556;28;20747;-76
2023/05/20 01:52:14;;;;;;;6.10;3.90;;;13.00;99.90;;;;;;4187140;28;20262;-75
2023/05/20 01:54:16;;;;;;;6.50;3.90;;;13.00;99.90;;;;;;4185059;28;20676;-75
2023/05/20 01:56:20;;;;;;;5.63;4.00;;;13.00;99.90;;;;;;4186364;28;20581;-75
2023/05/20 01:58:22;;;;;;;5.93;3.77;;;13.00;99.90;;;;;;4190513;28;20703;-75
2023/05/20 02:00:24;;;;;;;5.40;3.83;;;13.00;99.90;;;;;;4192876;28;20205;-74
2023/05/20 02:02:26;;;;;;;6.53;4.10;;;13.00;99.90;;;;;;4193088;28;20230;-75
2023/05/20 02:04:28;;;;;;;5.53;3.80;;;13.00;99.90;;;;;;4196108;28;20732;-75
2023/05/20 02:06:30;;;;;;;6.10;3.60;;;13.00;99.90;;;;;;4189769;28;20219;-75
2023/05/20 02:08:32;;;;;;;6.53;3.70;;;13.00;99.90;;;;;;4189770;28;20277;-75
2023/05/20 02:10:34;;;;;;;6.20;4.10;;;13.00;99.90;;;;;;4188152;28;20297;-74
2023/05/20 02:12:38;;;;;;;5.50;4.10;;;13.00;99.90;;;;;;4186122;28;20245;-74
2023/05/20 02:14:39;;;;;;;5.33;3.97;;;13.00;99.90;;;;;;4191272;28;20310;-75
2023/05/20 02:16:41;;;;;;;7.27;4.57;;;13.00;99.90;;;;;;4187927;28;20218;-74
2023/05/20 02:18:43;;;;;;;5.97;4.37;;;12.90;99.90;;;;;;4192094;28;20698;-74
2023/05/20 02:20:45;;;;;;;9.10;4.30;;;12.90;99.90;;;;;;4188420;28;20210;-75
2023/05/20 02:22:47;;;;;;;7.47;4.13;;;13.00;99.90;;;;;;4187240;28;20700;-74
2023/05/20 02:24:49;;;;;;;8.20;4.73;;;13.00;99.90;;;;;;4191004;28;20208;-75
2023/05/20 02:26:53;;;;;;;7.27;4.80;;;12.90;99.90;;;;;;4188124;28;20656;-74
2023/05/20 02:28:56;;;;;;;7.77;4.50;;;12.90;99.90;;;;;;4188093;28;20613;-75
2023/05/20 02:30:58;;;;;;;7.07;4.70;;;12.90;99.90;;;;;;4189595;28;20210;-73
2023/05/20 02:33:00;;;;;;;7.50;4.83;;;12.90;99.90;;;;;;4188284;28;20206;-75
2023/05/20 02:35:02;;;;;;;7.77;5.20;;;12.90;99.90;;;;;;4185096;28;20222;-75
2023/05/20 02:37:04;;;;;;;7.40;4.90;;;12.90;99.90;;;;;;4185605;28;20302;-74
2023/05/20 02:39:06;;;;;;;9.00;5.53;;;12.90;99.90;;;;;;4185920;28;20268;-75
2023/05/20 02:41:08;;;;;;;9.00;5.17;;;12.90;99.90;;;;;;4189449;28;20210;-74
2023/05/20 02:43:10;;;;;;;7.03;5.03;;;12.90;99.90;;;;;;4187592;28;20236;-75
2023/05/20 02:45:13;;;;;;;9.53;5.60;;;12.90;99.90;;;;;;4185299;28;20308;-75
2023/05/20 02:47:15;;;;;;;10.20;5.70;;;12.90;99.90;;;;;;4182038;28;20618;-74
2023/05/20 02:49:17;;;;;;;8.57;5.47;;;12.90;99.90;;;;;;4188170;28;20316;-74
2023/05/20 02:51:19;;;;;;;8.27;4.90;;;12.90;99.90;;;;;;4186453;28;20296;-74
2023/05/20 02:53:21;;;;;;;8.10;5.27;;;12.90;99.90;;;;;;4186831;28;20207;-74
2023/05/20 02:55:23;;;;;;;7.63;5.33;;;12.90;99.90;;;;;;4187205;28;20217;-75
2023/05/20 02:57:26;;;;;;;8.43;5.10;;;12.90;99.90;;;;;;4187644;28;20304;-75
2023/05/20 02:59:28;;;;;;;8.37;5.30;;;12.90;99.90;;;;;;4186928;28;20649;-74
2023/05/20 03:01:32;;;;;;;9.57;5.50;;;12.90;99.90;;;;;;4186117;28;20540;-74
2023/05/20 03:03:34;;;;;;;10.40;6.23;;;12.90;99.90;;;;;;4186310;28;20243;-74
2023/05/20 03:05:37;;;;;;;10.77;6.33;;;12.90;99.90;;;;;;4184927;28;20206;-75
2023/05/20 03:07:39;;;;;;;8.53;5.67;;;12.90;99.90;;;;;;4185179;28;20215;-74
2023/05/20 03:09:41;;;;;;;11.23;6.40;;;12.90;99.90;;;;;;4187679;28;20241;-74
2023/05/20 03:11:43;;;;;;;9.47;5.83;;;12.90;99.90;;;;;;4185058;28;20209;-74
2023/05/20 03:13:45;;;;;;;11.00;6.60;;;12.90;99.90;;;;;;4189145;28;20208;-75
2023/05/20 03:15:47;;;;;;;10.53;6.73;;;12.90;99.90;;;;;;4187595;28;20275;-74
2023/05/20 03:17:50;;;;;;;11.90;7.00;;;12.90;99.90;;;;;;4189601;28;20284;-74
2023/05/20 03:19:52;;;;;;;10.50;6.17;;;12.90;99.90;;;;;;4189781;28;20256;-75
2023/05/20 03:21:54;;;;;;;11.07;6.90;;;12.90;99.90;;;;;;4189968;28;20229;-74
2023/05/20 03:23:56;;;;;;;11.33;6.70;;;12.90;99.90;;;;;;4187522;28;20328;-75
2023/05/20 03:25:57;;;;;;;12.40;6.57;;;12.90;99.90;;;;;;4187411;28;20264;-75
2023/05/20 03:27:59;;;;;;;10.37;6.10;;;12.90;99.90;;;;;;4184667;28;20325;-74
2023/05/20 03:30:01;;;;;;;11.07;6.60;;;12.80;99.90;;;;;;4186576;28;20679;-75
2023/05/20 03:32:03;;;;;;;10.73;6.67;;;12.80;99.90;;;;;;4188509;28;20294;-74
2023/05/20 03:34:07;;;;;;;12.37;7.23;;;12.80;99.90;;;;;;4185732;28;20222;-75
2023/05/20 03:36:09;;;;;;;9.93;6.40;;;12.80;99.90;;;;;;4185849;28;20212;-74
2023/05/20 03:38:11;;;;;;;10.77;6.40;;;12.80;99.90;;;;;;4183547;28;20233;-74
2023/05/20 03:40:13;;;;;;;11.53;6.37;;;12.80;99.90;;;;;;4183676;28;20682;-74
2023/05/20 03:42:14;;;;;;;8.70;6.00;;;12.70;99.90;;;;;;4184811;28;20668;-75
2023/05/20 03:44:18;;;;;;;10.70;6.47;;;12.70;99.90;;;;;;4185928;28;20312;-75
2023/05/20 03:46:20;;;;;;;9.00;5.67;;;12.70;99.90;;;;;;4188215;28;20410;-75
2023/05/20 03:48:22;;;;;;;10.33;6.57;;;12.70;99.90;;;;;;4185504;28;20595;-76
2023/05/20 03:50:25;;;;;;;11.90;6.13;;;12.70;99.90;;;;;;4147394;28;1110708;-75
2023/05/20 03:52:27;;;;;;;9.07;5.63;;;12.70;99.90;;;;;;4186191;28;20216;-75
2023/05/20 03:54:30;;;;;;;8.37;5.47;;;12.70;99.90;;;;;;4190592;28;20263;-75
2023/05/20 03:56:32;;;;;;;9.47;6.03;;;12.60;99.90;;;;;;4187626;28;20206;-75
2023/05/20 03:58:34;;;;;;;7.60;5.50;;;12.60;99.90;;;;;;4186537;28;20233;-75
2023/05/20 04:00:36;;;;;;;8.63;5.53;;;12.60;99.90;;;;;;4184834;28;20214;-75
2023/05/20 04:02:38;;;;;;;8.70;5.70;;;12.60;99.90;;;;;;4187889;28;20241;-75
2023/05/20 04:04:43;;;;;;;8.93;5.47;;;12.60;99.90;;;;;;4182590;28;20945;-75
2023/05/20 04:06:46;;;;;;;8.20;5.43;;;12.60;99.90;;;;;;4186987;28;20616;-75
2023/05/20 04:08:48;;;;;;;9.43;5.97;;;12.70;99.90;;;;;;4187207;28;20332;-75
2023/05/20 04:10:50;;;;;;;8.40;5.90;;;12.70;99.90;;;;;;4188101;28;20301;-75
2023/05/20 04:12:52;;;;;;;8.83;5.70;;;12.70;99.90;;;;;;4185720;28;20309;-75
2023/05/20 04:14:54;;;;;;;9.00;5.40;;;12.70;99.90;;;;;;4185723;28;20235;-75
2023/05/20 04:16:56;;;;;;;10.10;5.40;;;12.70;99.90;;;;;;4182637;28;20256;-75
2023/05/20 04:18:59;;;;;;;7.93;4.90;;;12.70;99.90;;;;;;4185454;28;20233;-75
2023/05/20 04:21:01;;;;;;;9.93;5.93;;;12.70;99.90;;;;;;4187323;28;20214;-75
2023/05/20 04:23:04;;;;;;;8.13;5.60;;;12.80;99.90;;;;;;4188257;28;20332;-75
2023/05/20 04:25:07;;;;;;;10.70;6.27;;;12.80;99.90;;;;;;4186020;28;20224;-75
2023/05/20 04:27:09;;;;;;;9.90;5.80;;;12.80;99.90;;;;;;4184380;28;20210;-75
2023/05/20 04:29:11;;;;;;;9.53;5.73;;;12.80;99.90;;;;;;4191282;28;20264;-75
2023/05/20 04:31:13;;;;;;;8.57;6.03;;;12.80;99.90;;;;;;4187681;28;20244;-75
2023/05/20 04:33:17;;;;;;;8.40;5.87;;;12.80;99.90;;;;;;4185563;28;20198;-75
2023/05/20 04:35:19;;;;;;;10.63;6.30;;;12.90;99.90;;;;;;4183045;28;20217;-75
2023/05/20 04:37:21;;;;;;;11.77;6.90;;;12.90;99.90;;;;;;4181892;28;20293;-76
2023/05/20 04:39:25;;;;;;;10.73;6.60;;;12.90;99.90;;;;;;4187681;28;20250;-76
2023/05/20 04:41:27;;;;;;;11.37;7.53;;;12.90;99.90;;;;;;4191022;28;20721;-76
2023/05/20 04:43:29;;;;;;;12.77;7.63;;;13.00;99.90;;;;;;4182960;28;20254;-76
2023/05/20 04:45:32;;;;;;;14.83;7.63;;;13.00;99.90;;;;;;4187843;28;20214;-76
2023/05/20 04:47:37;;;;;;;10.60;6.90;;;13.00;99.90;;;;;;4187040;28;20663;-76
2023/05/20 04:49:39;;;;;;;10.80;6.53;;;13.00;99.90;;;;;;4187247;28;20222;-76
2023/05/20 04:51:42;;;;;;;11.77;6.67;;;13.00;99.90;;;;;;4183541;28;20866;-76
2023/05/20 04:53:44;;;;;;;10.20;7.13;;;13.00;99.90;;;;;;4187415;28;20260;-75
2023/05/20 04:55:48;;;;;;;11.33;7.33;;;13.10;99.90;;;;;;4184642;28;20210;-76
2023/05/20 04:57:50;;;;;;;10.77;6.60;;;13.20;99.90;;;;;;4185710;28;20293;-75
2023/05/20 04:59:52;;;;;;;11.73;7.17;;;13.20;99.90;;;;;;4184261;28;20237;-76
2023/05/20 05:01:54;;;;;;;9.10;6.30;;;13.20;99.90;;;;;;4187589;28;20210;-75
2023/05/20 05:03:56;;;;;;;12.00;6.67;;;13.30;99.90;;;;;;4181150;28;20272;-75
2023/05/20 05:05:58;;;;;;;10.57;6.90;;;13.30;99.90;;;;;;4190327;28;21025;-76
2023/05/20 05:08:00;;;;;;;9.77;6.27;;;13.40;99.90;;;;;;4188293;28;20234;-75
2023/05/20 05:10:02;;;;;;;10.37;6.17;;;13.40;99.90;;;;;;4188108;28;20236;-75
2023/05/20 05:12:06;;;;;;;9.50;6.40;;;13.40;99.90;;;;;;4187940;28;20306;-75
2023/05/20 05:14:08;;;;;;;10.60;6.97;;;13.40;99.90;;;;;;4183159;28;20299;-76
2023/05/20 05:16:10;;;;;;;11.63;7.30;;;13.50;99.90;;;;;;4186071;28;20306;-75
2023/05/20 05:18:11;;;;;;;10.50;6.63;;;13.50;99.90;;;;;;4189637;28;20315;-75
2023/05/20 05:20:13;;;;;;;10.03;6.23;;;13.60;99.90;;;;;;4186881;28;20298;-75
2023/05/20 05:22:15;;;;;;;10.60;6.63;;;13.50;99.90;;;;;;4186042;28;20249;-75
2023/05/20 05:24:17;;;;;;;11.43;6.87;;;13.60;99.90;;;;;;4190766;28;21457;-75
2023/05/20 05:26:19;;;;;;;9.53;6.27;;;13.60;99.90;;;;;;4182327;28;20294;-75
2023/05/20 05:28:23;;;;;;;10.73;6.97;;;13.70;99.90;;;;;;4189108;28;20216;-75
2023/05/20 05:30:25;;;;;;;12.53;6.80;;;13.70;99.90;;;;;;4188213;28;20242;-76
2023/05/20 05:32:27;;;;;;;10.93;6.70;;;13.70;99.90;;;;;;4189839;28;20218;-76
2023/05/20 05:34:29;;;;;;;9.37;6.67;;;13.80;99.90;;;;;;4187371;28;20212;-75
2023/05/20 05:36:33;;;;;;;12.10;7.57;;;13.80;99.90;;;;;;4187942;28;20222;-75
2023/05/20 05:38:35;;;;;;;13.47;7.37;;;13.80;99.90;;;;;;4186478;28;20246;-75
2023/05/20 05:40:37;;;;;;;10.77;7.20;;;13.90;99.90;;;;;;4185220;28;20320;-75
2023/05/20 05:42:39;;;;;;;10.90;6.90;;;13.90;99.90;;;;;;4185285;28;20218;-75
2023/05/20 05:44:43;;;;;;;11.20;7.37;;;13.90;99.90;;;;;;4184137;28;20227;-75
2023/05/20 05:46:51;;;;;;;12.93;8.13;;;14.00;99.90;;;;;;4184371;28;20205;-75
2023/05/20 05:48:53;;;;;;;17.53;9.57;;;14.00;99.90;;;;;;4183889;28;20249;-75
2023/05/20 05:50:55;;;;;;;13.73;8.43;;;13.90;99.90;;;;;;4184123;28;20886;-75
2023/05/20 05:52:56;;;;;;;12.50;7.97;;;13.90;99.90;;;;;;4184204;28;20225;-75
2023/05/20 05:54:58;;;;;;;13.70;8.13;;;13.90;99.90;;;;;;4185081;28;20992;-75
2023/05/20 05:57:00;;;;;;;11.57;7.77;;;13.90;99.90;;;;;;4182580;28;20212;-75
2023/05/20 05:59:02;;;;;;;12.40;7.33;;;13.90;99.90;;;;;;4183391;28;20239;-75
2023/05/20 06:01:05;;;;;;;13.57;8.10;;;13.90;99.90;;;;;;4190032;28;20211;-75
2023/05/20 06:03:07;;;;;;;13.50;7.57;;;14.00;99.90;;;;;;4182146;28;20382;-75
2023/05/20 06:05:10;;;;;;;12.20;7.50;;;14.00;99.90;;;;;;4188030;28;20240;-75
2023/05/20 06:07:12;;;;;;;12.43;7.77;;;14.10;99.90;;;;;;4189408;28;20634;-75
2023/05/20 06:09:14;;;;;;;11.93;7.57;;;14.20;99.90;;;;;;4183492;28;20228;-76
2023/05/20 06:11:16;;;;;;;13.33;7.97;;;14.30;99.90;;;;;;4186835;28;20218;-75
2023/05/20 06:13:18;;;;;;;13.47;7.93;;;14.30;99.90;;;;;;4184054;28;20752;-75
2023/05/20 06:15:20;;;;;;;13.27;8.17;;;14.30;99.90;;;;;;4186517;28;20769;-76
2023/05/20 06:17:23;;;;;;;12.00;8.37;;;14.40;99.90;;;;;;4185795;28;20212;-76
2023/05/20 06:19:25;;;;;;;14.97;8.27;;;14.40;99.90;;;;;;4184564;28;20674;-76
2023/05/20 06:21:27;;;;;;;13.33;7.87;;;14.40;99.90;;;;;;4184686;28;20318;-76
2023/05/20 06:23:29;;;;;;;16.70;7.83;;;14.40;99.90;;;;;;4183788;28;20246;-75
2023/05/20 06:25:31;;;;;;;13.23;7.90;;;14.50;99.90;;;;;;4182218;28;20233;-75
2023/05/20 06:27:33;;;;;;;13.10;8.47;;;14.50;99.90;;;;;;4188597;28;20608;-75
2023/05/20 06:29:35;;;;;;;14.30;8.10;;;14.50;99.90;;;;;;4184567;28;20334;-75
2023/05/20 06:31:37;;;;;;;14.47;8.47;;;14.60;99.90;;;;;;4184909;28;20723;-75
2023/05/20 06:33:40;;;;;;;15.17;9.40;;;14.60;99.90;;;;;;4186572;28;20303;-75
2023/05/20 06:35:42;;;;;;;14.60;9.37;;;14.60;99.90;;;;;;4187091;28;20941;-75
2023/05/20 06:37:44;;;;;;;13.90;9.27;;;14.60;99.90;;;;;;4181454;28;20209;-75
2023/05/20 06:39:50;;;;;;;15.13;9.23;;;14.60;99.90;;;;;;4184240;28;20217;-75
2023/05/20 06:41:52;;;;;;;13.53;8.37;;;14.70;99.90;;;;;;4194222;28;20867;-75
2023/05/20 06:43:54;;;;;;;14.30;8.77;;;14.70;99.90;;;;;;4190338;28;20234;-75
2023/05/20 06:45:56;;;;;;;13.63;8.30;;;14.70;99.90;;;;;;4187114;28;20646;-76
2023/05/20 06:47:59;;;;;;;13.00;8.30;;;14.70;99.90;;;;;;4191522;28;20716;-76
2023/05/20 06:50:02;;;;;;;13.37;7.87;;;14.70;99.90;;;;;;4198395;28;20871;-75
2023/05/20 06:52:05;;;;;;;11.37;7.60;;;14.70;99.90;;;;;;4191543;28;20216;-75
2023/05/20 06:54:07;;;;;;;12.20;8.07;;;14.80;99.90;;;;;;4189825;28;20575;-75
2023/05/20 06:56:09;;;;;;;13.10;8.27;;;14.80;99.90;;;;;;4190309;28;20668;-75
2023/05/20 06:58:11;;;;;;;14.03;8.77;;;14.80;99.90;;;;;;4187326;28;20230;-74
2023/05/20 07:00:13;;;;;;;13.30;8.33;;;14.80;99.90;;;;;;4190601;28;20208;-76
2023/05/20 07:02:15;;;;;;;14.67;8.10;;;14.80;99.90;;;;;;4188840;28;20217;-76
2023/05/20 07:04:17;;;;;;;14.37;8.10;;;14.80;99.90;;;;;;4182736;28;20229;-75
2023/05/20 07:06:21;;;;;;;14.00;8.00;;;14.80;99.90;;;;;;4189707;28;20209;-76
2023/05/20 07:08:23;;;;;;;12.33;7.63;;;14.90;99.90;;;;;;4186080;28;20228;-77
2023/05/20 07:10:25;;;;;;;12.23;7.77;;;14.90;99.90;;;;;;4187984;28;20628;-76
2023/05/20 07:12:27;;;;;;;11.50;7.70;;;14.90;99.90;;;;;;4189732;28;20669;-75
2023/05/20 07:14:29;;;;;;;14.10;8.33;;;14.90;99.90;;;;;;4187877;28;20218;-75
2023/05/20 07:16:33;;;;;;;15.53;9.43;;;15.00;99.90;;;;;;4190285;28;20234;-75
2023/05/20 07:18:35;;;;;;;15.10;9.40;;;15.00;99.90;;;;;;4192313;28;20291;-76
2023/05/20 07:20:38;;;;;;;15.13;9.53;;;15.00;99.90;;;;;;4188339;28;20278;-79
2023/05/20 07:22:42;;;;;;;14.83;9.17;;;15.00;99.90;;;;;;4188322;28;20722;-76
2023/05/20 07:24:45;;;;;;;13.97;8.80;;;15.10;99.90;;;;;;4186372;28;20229;-76
2023/05/20 07:26:49;;;;;;;13.47;8.87;;;15.10;99.90;;;;;;4190911;28;20338;-75
2023/05/20 07:28:51;;;;;;;14.73;9.47;;;15.20;99.90;;;;;;4189483;28;20803;-75
2023/05/20 07:30:55;;;;;;;14.93;9.63;;;15.20;99.90;;;;;;4183685;28;20720;-76
2023/05/20 07:32:57;;;;;;;16.67;9.93;;;15.30;99.90;;;;;;4182859;28;20566;-75
2023/05/20 07:34:59;;;;;;;17.47;9.00;;;15.30;99.90;;;;;;4189718;28;20340;-76
2023/05/20 07:37:00;;;;;;;14.57;9.33;;;15.40;99.90;;;;;;4189887;28;20249;-74
2023/05/20 07:39:04;;;;;;;14.40;9.20;;;15.40;99.90;;;;;;4187434;28;20232;-76
2023/05/20 07:41:06;;;;;;;13.90;9.30;;;15.40;99.90;;;;;;4192136;28;20264;-76
2023/05/20 07:43:11;;;;;;;15.47;9.97;;;15.40;99.90;;;;;;4186505;28;20210;-76
2023/05/20 07:45:13;;;;;;;17.00;11.20;;;15.50;99.90;;;;;;4187651;28;20235;-76
2023/05/20 07:47:15;;;;;;;18.87;11.13;;;15.50;99.90;;;;;;4188009;28;20263;-76
2023/05/20 07:49:17;;;;;;;17.90;10.83;;;15.60;99.90;;;;;;4187982;28;20233;-79
2023/05/20 07:51:19;;;;;;;16.63;9.93;;;15.70;99.90;;;;;;4186859;28;20256;-76
2023/05/20 07:53:20;;;;;;;16.20;9.63;;;15.70;99.90;;;;;;4187750;28;20641;-76
2023/05/20 07:55:24;;;;;;;14.57;9.40;;;15.80;99.90;;;;;;4184096;28;20209;-76
2023/05/20 07:57:25;;;;;;;17.67;9.83;;;16.00;99.90;;;;;;4184375;28;20224;-78
2023/05/20 07:59:27;;;;;;;16.37;10.33;;;16.10;99.90;;;;;;4184796;28;20226;-75
2023/05/20 08:01:30;;;;;;;15.30;10.13;;;16.20;99.90;;;;;;4187624;28;20298;-74
2023/05/20 08:03:32;;;;;;;15.10;9.90;;;16.30;99.90;;;;;;4183722;28;20639;-74
2023/05/20 08:05:37;;;;;;;16.27;10.30;;;16.40;99.90;;;;;;4183955;28;20306;-75
2023/05/20 08:07:39;;;;;;;17.47;10.20;;;16.50;99.90;;;;;;4188102;28;20223;-75
2023/05/20 08:09:41;;;;;;;16.20;9.63;;;16.60;99.90;;;;;;4181776;28;20208;-75
2023/05/20 08:11:44;;;;;;;17.43;10.10;;;16.60;99.90;;;;;;4188187;28;20675;-75
2023/05/20 08:13:46;;;;;;;16.00;10.03;;;16.70;99.90;;;;;;4187057;28;20310;-74
2023/05/20 08:15:53;;;;;;;16.20;10.67;;;16.70;99.90;;;;;;4185526;28;20235;-76
2023/05/20 08:17:55;;;;;;;14.60;10.00;;;16.80;99.90;;;;;;4182868;28;20244;-76
2023/05/20 08:19:57;;;;;;;15.27;9.90;;;16.80;99.90;;;;;;4187287;28;20215;-76
2023/05/20 08:21:59;;;;;;;15.83;10.20;;;16.80;99.90;;;;;;4188161;28;20306;-74
2023/05/20 08:24:01;;;;;;;13.93;9.57;;;16.90;99.90;;;;;;4186900;28;20311;-76
2023/05/20 08:26:03;;;;;;;16.07;9.33;;;16.90;99.90;;;;;;4185657;28;20319;-75
2023/05/20 08:28:06;;;;;;;13.87;9.00;;;16.90;99.90;;;;;;4184981;28;20251;-75
2023/05/20 08:30:09;;;;;;;15.53;8.53;;;17.00;99.90;;;;;;4187382;28;20211;-74
2023/05/20 08:32:11;;;;;;;13.43;8.40;;;17.00;99.90;;;;;;4186155;28;20708;-75
2023/05/20 08:34:13;;;;;;;14.80;9.00;;;17.10;99.90;;;;;;4188323;28;20914;-74
2023/05/20 08:36:15;;;;;;;13.57;9.03;;;17.10;99.90;;;;;;4190702;28;20213;-76
2023/05/20 08:38:17;;;;;;;12.90;8.57;;;17.10;99.90;;;;;;4189897;28;20359;-75
2023/05/20 08:40:25;;;;;;;12.30;8.50;;;17.10;99.90;;;;;;4188711;28;20212;-74
2023/05/20 08:42:26;;;;;;;12.63;8.60;;;17.10;99.90;;;;;;4183236;28;20211;-75
2023/05/20 08:44:30;;;;;;;12.53;8.67;;;17.10;99.90;;;;;;4182606;28;20220;-75
2023/05/20 08:46:35;;;;;;;12.03;7.90;;;17.10;99.90;;;;;;4184533;28;20265;-74
2023/05/20 08:48:37;;;;;;;13.77;8.93;;;17.10;99.90;;;;;;4184937;28;20255;-74
2023/05/20 08:50:39;;;;;;;12.10;8.50;;;17.10;99.90;;;;;;4185972;28;20220;-74
2023/05/20 08:52:44;;;;;;;14.60;8.70;;;17.20;99.90;;;;;;4183946;28;20212;-74
2023/05/20 08:54:49;;;;;;;12.23;7.93;;;17.30;99.90;;;;;;4186712;28;20215;-74
2023/05/20 08:56:52;;;;;;;13.57;9.10;;;17.50;99.90;;;;;;4185728;28;20265;-74
2023/05/20 08:58:55;;;;;;;15.83;8.87;;;17.60;99.90;;;;;;4184422;28;20232;-74
2023/05/20 09:00:59;;;;;;;14.73;8.83;;;17.80;99.90;;;;;;4187823;28;20205;-74
2023/05/20 09:03:01;;;;;;;15.90;10.20;;;17.90;99.90;;;;;;4186779;28;20205;-75
2023/05/20 09:05:03;;;;;;;15.40;9.37;;;18.10;99.90;;;;;;4182740;28;20290;-75
2023/05/20 09:07:05;;;;;;;16.57;9.80;;;18.10;99.90;;;;;;4185314;28;20627;-74
2023/05/20 09:09:10;;;;;;;14.27;9.50;;;18.20;99.90;;;;;;4184898;28;20240;-74
2023/05/20 09:11:13;;;;;;;13.97;9.20;;;18.30;99.90;;;;;;4183466;28;20259;-73
2023/05/20 09:13:14;;;;;;;15.97;10.20;;;18.40;99.90;;;;;;4181840;28;20304;-76
2023/05/20 09:15:16;;;;;;;14.07;9.53;;;18.50;99.90;;;;;;4181809;28;20241;-73
2023/05/20 09:17:21;;;;;;;14.37;9.53;;;18.50;99.90;;;;;;4184644;28;20340;-74
2023/05/20 09:19:25;;;;;;;17.07;10.20;;;18.50;99.90;;;;;;4184290;28;20324;-74
2023/05/20 09:21:27;;;;;;;17.83;10.60;;;18.60;99.90;;;;;;4186401;28;20677;-73
2023/05/20 09:23:30;;;;;;;17.13;10.80;;;18.60;99.90;;;;;;4183486;28;20216;-73
2023/05/20 09:25:32;;;;;;;21.57;11.57;;;18.60;99.90;;;;;;4184486;28;20232;-73
2023/05/20 09:27:34;;;;;;;18.43;11.80;;;18.60;99.90;;;;;;4186129;28;20221;-73
2023/05/20 09:29:35;;;;;;;17.53;11.70;;;18.70;99.90;;;;;;4183884;28;20301;-73
2023/05/20 09:31:38;;;;;;;17.13;11.30;;;18.80;99.90;;;;;;4188591;28;20301;-73
2023/05/20 09:33:41;;;;;;;16.40;11.40;;;18.90;99.90;;;;;;4185017;28;20211;-72
2023/05/20 09:35:43;;;;;;;17.53;10.93;;;18.90;99.90;;;;;;4181310;28;20214;-72
2023/05/20 09:37:47;;;;;;;16.10;10.47;;;19.00;99.90;;;;;;4185875;28;20220;-73
2023/05/20 09:39:56;;;;;;;16.73;11.20;;;19.10;99.90;;;;;;4186298;28;20296;-73
2023/05/20 09:42:18;;;;;;;19.60;11.00;;;19.20;99.90;;;;;;4185634;28;20397;-74
2023/05/20 09:44:21;;;;;;;18.03;10.77;;;19.30;99.90;;;;;;4183537;28;20210;-74
2023/05/20 09:46:24;;;;;;;18.37;10.57;;;19.40;99.90;;;;;;4183389;28;20222;-74
2023/05/20 09:48:27;;;;;;;17.40;9.93;;;19.50;99.90;;;;;;4187976;28;20930;-74
2023/05/20 09:50:31;;;;;;;16.63;10.33;;;19.50;99.90;;;;;;4183827;28;20218;-74
2023/05/20 09:52:36;;;;;;;17.07;11.30;;;19.50;99.90;;;;;;4185107;28;20310;-74
2023/05/20 09:54:38;;;;;;;17.33;10.93;;;19.50;99.90;;;;;;4185041;28;20271;-74
2023/05/20 09:56:41;;;;;;;15.10;10.33;;;19.50;99.90;;;;;;4188668;28;20305;-74
2023/05/20 09:58:45;;;;;;;17.40;11.90;;;19.50;99.90;;;;;;4184627;28;20237;-75
2023/05/20 10:00:47;;;;;;;18.07;11.60;;;19.60;99.90;;;;;;4185704;28;20218;-74
2023/05/20 10:02:51;;;;;;;16.13;11.13;;;19.70;99.90;;;;;;4197632;28;20209;-74
2023/05/20 10:04:55;;;;;;;18.47;11.67;;;19.90;99.90;;;;;;4192819;28;21848;-73
2023/05/20 10:07:25;;;;;;;15.17;9.93;;;20.10;99.90;;;;;;4191787;28;20214;-74
2023/05/20 10:09:42;;;;;;;15.53;10.20;;;20.20;99.90;;;;;;4178458;28;20297;-75
2023/05/20 10:11:51;;;;;;;13.63;9.17;;;20.30;99.90;;;;;;4191656;28;20236;-74
2023/05/20 10:14:10;;;;;;;14.73;9.93;;;20.40;99.90;;;;;;4190825;28;20248;-73
2023/05/20 10:16:22;;;;;;;14.53;9.70;;;20.50;99.90;;;;;;4185849;28;20259;-74
2023/05/20 10:18:36;;;;;;;14.80;10.03;;;20.70;99.90;;;;;;4186065;28;20703;-74
2023/05/20 10:20:46;;;;;;;13.83;9.80;;;20.70;99.90;;;;;;4190012;28;20306;-74
2023/05/20 10:22:57;;;;;;;14.33;9.57;;;20.90;99.90;;;;;;4190923;28;20215;-74
2023/05/20 10:25:00;;;;;;;16.13;10.30;;;21.00;99.90;;;;;;4189960;28;20227;-73
2023/05/20 10:27:05;;;;;;;14.83;9.00;;;21.10;99.90;;;;;;4188864;28;20205;-75
2023/05/20 10:29:17;;;;;;;12.60;9.27;;;21.10;99.90;;;;;;4194254;28;20979;-74
2023/05/20 10:31:21;;;;;;;14.20;10.10;;;21.20;99.90;;;;;;4191195;28;20215;-74
2023/05/20 10:33:23;;;;;;;16.17;9.73;;;21.20;99.90;;;;;;4193707;28;20213;-77